Time;durP1;ratioP1;P1;durP2;ratioP2;P2;SDS_P1;SDS_P2;PMS_P1;PMS_P2;Temp;Humidity;BMP_temperature;BMP_pressure;BME280_temperature;BME280_humidity;BME280_pressure;Samples;Min_cycle;Max_cycle;Signal;HPM_P1;HPM_P2
2023/01/06 00:02:11;;;;;;;19.30;8.20;;;;;;;;;;5115087;28;20034;-68
2023/01/06 00:04:38;;;;;;;7.65;4.88;;;;;;;;;;5096562;28;20024;-68
2023/01/06 00:07:04;;;;;;;11.18;6.10;;;;;;;;;;5114395;28;20026;-68
2023/01/06 00:09:32;;;;;;;25.15;9.25;;;;;;;;;;5114766;28;20027;-68
2023/01/06 00:11:59;;;;;;;18.58;8.13;;;;;;;;;;5114715;28;20442;-68
2023/01/06 00:14:25;;;;;;;11.73;7.05;;;;;;;;;;5114957;28;20020;-68
2023/01/06 00:16:51;;;;;;;9.43;6.35;;;;;;;;;;5114563;28;20020;-68
2023/01/06 00:19:18;;;;;;;11.18;6.82;;;;;;;;;;5114754;28;20027;-68
2023/01/06 00:21:44;;;;;;;12.48;7.55;;;;;;;;;;5096416;28;20072;-68
2023/01/06 00:24:10;;;;;;;15.30;8.98;;;;;;;;;;5114090;28;20032;-67
2023/01/06 00:26:37;;;;;;;20.77;10.32;;;;;;;;;;5114421;28;20899;-68
2023/01/06 00:29:03;;;;;;;27.95;10.68;;;;;;;;;;5114672;28;20038;-68
2023/01/06 00:31:30;;;;;;;20.40;10.10;;;;;;;;;;5114446;28;20019;-68
2023/01/06 00:33:57;;;;;;;20.67;10.15;;;;;;;;;;5114564;28;20031;-68
2023/01/06 00:36:24;;;;;;;16.88;11.05;;;;;;;;;;5114345;28;20046;-68
2023/01/06 00:38:50;;;;;;;14.23;9.50;;;;;;;;;;5095937;28;20044;-68
2023/01/06 00:44:02;;;;;;;48.45;15.32;;;;;;;;;;5114015;28;20038;-68
2023/01/06 00:46:29;;;;;;;27.83;11.98;;;;;;;;;;5114104;28;20476;-68
2023/01/06 00:48:56;;;;;;;16.98;10.15;;;;;;;;;;5114015;28;20080;-68
2023/01/06 00:51:23;;;;;;;22.60;10.07;;;;;;;;;;5113507;28;20019;-68
2023/01/06 00:53:49;;;;;;;12.95;8.70;;;;;;;;;;5113742;28;20032;-68
2023/01/06 00:56:16;;;;;;;14.70;8.65;;;;;;;;;;5114318;28;20042;-68
2023/01/06 00:58:42;;;;;;;45.75;20.67;;;;;;;;;;5113745;28;20460;-68
2023/01/06 01:01:09;;;;;;;29.30;14.63;;;;;;;;;;5095952;28;20024;-68
2023/01/06 01:03:36;;;;;;;21.02;12.23;;;;;;;;;;5113447;28;20035;-67
2023/01/06 01:06:03;;;;;;;27.85;14.35;;;;;;;;;;5114203;28;20034;-68
2023/01/06 01:08:29;;;;;;;25.65;13.43;;;;;;;;;;5113530;28;20391;-68
2023/01/06 01:11:01;;;;;;;19.90;10.75;;;;;;;;;;5113955;28;20395;-67
2023/01/06 01:13:28;;;;;;;14.43;9.52;;;;;;;;;;5113817;28;20023;-68
2023/01/06 01:15:54;;;;;;;15.43;9.82;;;;;;;;;;5113782;28;20023;-68
2023/01/06 01:18:20;;;;;;;19.33;10.55;;;;;;;;;;5113571;28;20031;-68
2023/01/06 01:20:47;;;;;;;22.63;11.15;;;;;;;;;;5113351;28;20019;-68
2023/01/06 01:23:13;;;;;;;22.77;11.00;;;;;;;;;;5113653;28;20361;-68
2023/01/06 01:25:39;;;;;;;37.55;15.63;;;;;;;;;;5094897;28;20031;-68
2023/01/06 01:28:06;;;;;;;20.13;10.20;;;;;;;;;;5113057;28;20377;-68
2023/01/06 01:30:32;;;;;;;28.42;12.65;;;;;;;;;;5113299;28;20027;-68
2023/01/06 01:32:59;;;;;;;17.13;9.25;;;;;;;;;;5112706;28;20044;-68
2023/01/06 01:35:25;;;;;;;17.92;9.10;;;;;;;;;;5113701;28;20034;-68
2023/01/06 01:37:51;;;;;;;10.25;7.05;;;;;;;;;;5113285;28;20042;-68
2023/01/06 01:40:18;;;;;;;12.77;7.20;;;;;;;;;;5112996;28;20056;-68
2023/01/06 01:42:44;;;;;;;11.52;8.10;;;;;;;;;;5113056;28;20041;-68
2023/01/06 01:45:24;;;;;;;11.80;6.95;;;;;;;;;;5113007;28;20502;-68
2023/01/06 01:47:57;;;;;;;10.48;7.97;;;;;;;;;;5112921;28;20391;-68
2023/01/06 01:50:26;;;;;;;12.30;8.45;;;;;;;;;;5113143;28;20031;-68
2023/01/06 01:52:54;;;;;;;11.00;8.75;;;;;;;;;;5112917;28;20030;-68
2023/01/06 01:55:21;;;;;;;12.25;8.13;;;;;;;;;;5112634;28;20034;-71
2023/01/06 01:57:50;;;;;;;10.52;6.97;;;;;;;;;;5113165;28;20034;-71
2023/01/06 02:00:17;;;;;;;11.93;7.70;;;;;;;;;;5112717;28;20020;-70
2023/01/06 02:02:43;;;;;;;10.77;7.30;;;;;;;;;;5112359;28;20032;-71
2023/01/06 02:05:11;;;;;;;9.77;7.20;;;;;;;;;;5112961;28;20024;-70
2023/01/06 02:07:38;;;;;;;11.07;7.57;;;;;;;;;;5112556;28;20030;-70
2023/01/06 02:10:04;;;;;;;13.48;8.40;;;;;;;;;;5112659;28;20450;-71
2023/01/06 02:12:31;;;;;;;14.05;9.00;;;;;;;;;;5113269;28;20020;-70
2023/01/06 02:14:57;;;;;;;11.30;7.38;;;;;;;;;;5112951;28;20464;-70
2023/01/06 02:17:26;;;;;;;12.35;7.15;;;;;;;;;;5112432;28;20027;-70
2023/01/06 02:19:53;;;;;;;12.20;7.35;;;;;;;;;;5113419;28;20030;-70
2023/01/06 02:22:31;;;;;;;10.35;7.43;;;;;;;;;;5112592;28;20020;-70
2023/01/06 02:25:14;;;;;;;10.60;7.57;;;;;;;;;;5112646;28;20038;-70
2023/01/06 02:27:59;;;;;;;12.70;8.10;;;;;;;;;;5094434;28;20036;-70
2023/01/06 02:30:39;;;;;;;10.55;7.38;;;;;;;;;;5112530;28;20030;-70
2023/01/06 02:33:10;;;;;;;10.57;7.43;;;;;;;;;;5112739;28;20030;-71
2023/01/06 02:35:55;;;;;;;12.98;7.43;;;;;;;;;;5112764;28;20588;-70
2023/01/06 02:38:40;;;;;;;12.32;8.07;;;;;;;;;;5094542;28;20051;-70
2023/01/06 02:41:25;;;;;;;15.65;10.45;;;;;;;;;;5112601;28;20034;-68
2023/01/06 02:43:55;;;;;;;14.88;9.45;;;;;;;;;;5112593;28;20042;-68
2023/01/06 02:46:24;;;;;;;13.38;8.57;;;;;;;;;;5112555;28;20020;-68
2023/01/06 02:49:09;;;;;;;11.77;7.00;;;;;;;;;;5112727;28;20038;-68
2023/01/06 02:51:40;;;;;;;9.35;6.30;;;;;;;;;;5112487;28;20029;-68
2023/01/06 02:54:09;;;;;;;8.63;5.43;;;;;;;;;;5112571;28;20023;-68
2023/01/06 02:56:38;;;;;;;8.02;5.18;;;;;;;;;;5112781;28;20031;-68
2023/01/06 02:59:07;;;;;;;7.47;4.90;;;;;;;;;;5112227;28;20079;-68
2023/01/06 03:01:36;;;;;;;7.13;4.68;;;;;;;;;;5094456;28;20030;-68
2023/01/06 03:04:05;;;;;;;5.75;4.05;;;;;;;;;;5112379;28;20034;-67
2023/01/06 03:06:33;;;;;;;8.32;5.15;;;;;;;;;;5112227;28;20030;-68
2023/01/06 03:08:59;;;;;;;8.45;5.30;;;;;;;;;;5112739;28;20035;-68
2023/01/06 03:11:27;;;;;;;6.25;4.53;;;;;;;;;;5112134;28;20015;-68
2023/01/06 03:13:59;;;;;;;6.40;4.65;;;;;;;;;;5112381;28;20034;-68
2023/01/06 03:16:25;;;;;;;5.88;4.90;;;;;;;;;;5113317;28;20030;-68
2023/01/06 03:18:52;;;;;;;7.15;4.90;;;;;;;;;;5097687;28;20035;-68
2023/01/06 03:21:21;;;;;;;11.00;5.30;;;;;;;;;;5115977;28;20024;-68
2023/01/06 03:23:47;;;;;;;8.60;5.13;;;;;;;;;;5115567;28;20082;-68
2023/01/06 03:26:13;;;;;;;8.07;5.32;;;;;;;;;;5115753;28;20023;-68
2023/01/06 03:28:40;;;;;;;8.98;5.72;;;;;;;;;;5115652;28;20050;-68
2023/01/06 03:31:15;;;;;;;10.55;5.60;;;;;;;;;;5115558;28;20016;-68
2023/01/06 03:34:02;;;;;;;16.17;7.10;;;;;;;;;;5115808;28;20042;-68
2023/01/06 03:36:37;;;;;;;11.32;7.38;;;;;;;;;;5097533;28;20028;-68
2023/01/06 03:39:25;;;;;;;11.68;6.93;;;;;;;;;;5115493;28;20050;-68
2023/01/06 03:45:05;;;;;;;13.73;7.05;;;;;;;;;;5115100;28;20032;-68
2023/01/06 03:47:31;;;;;;;11.65;6.28;;;;;;;;;;5115876;28;20015;-68
2023/01/06 03:50:06;;;;;;;10.15;6.10;;;;;;;;;;5115123;28;20039;-68
2023/01/06 03:52:35;;;;;;;13.30;5.40;;;;;;;;;;5115441;28;20024;-68
2023/01/06 03:55:22;;;;;;;10.77;5.85;;;;;;;;;;5115273;28;20036;-68
2023/01/06 03:57:51;;;;;;;13.90;4.72;;;;;;;;;;5114914;28;20015;-68
2023/01/06 04:00:20;;;;;;;10.80;5.03;;;;;;;;;;5115225;28;20026;-68
2023/01/06 04:02:46;;;;;;;10.40;5.28;;;;;;;;;;5096694;28;20031;-68
2023/01/06 04:05:15;;;;;;;16.15;5.50;;;;;;;;;;5115142;28;20020;-68
2023/01/06 04:07:41;;;;;;;10.32;4.57;;;;;;;;;;5115086;28;20046;-68
2023/01/06 04:10:08;;;;;;;11.48;4.72;;;;;;;;;;5115023;28;20027;-68
2023/01/06 04:12:38;;;;;;;14.15;4.38;;;;;;;;;;5114467;28;20030;-67
2023/01/06 04:15:04;;;;;;;10.50;4.88;;;;;;;;;;5114800;28;20514;-68
2023/01/06 04:17:31;;;;;;;8.60;4.28;;;;;;;;;;5114784;28;20027;-68
2023/01/06 04:19:57;;;;;;;7.10;3.92;;;;;;;;;;5114675;28;20020;-68
2023/01/06 04:22:23;;;;;;;9.35;3.80;;;;;;;;;;5114584;28;20035;-68
2023/01/06 04:24:50;;;;;;;9.52;4.30;;;;;;;;;;5114516;28;20425;-68
2023/01/06 04:27:16;;;;;;;4.55;3.10;;;;;;;;;;5114151;28;20030;-68
2023/01/06 04:29:43;;;;;;;5.22;3.38;;;;;;;;;;5114709;28;20064;-68
2023/01/06 04:32:09;;;;;;;7.50;3.75;;;;;;;;;;5114123;28;20430;-68
2023/01/06 04:34:35;;;;;;;7.05;3.67;;;;;;;;;;5114904;28;20020;-68
2023/01/06 04:37:02;;;;;;;4.78;2.92;;;;;;;;;;5096280;28;20614;-68
2023/01/06 04:39:28;;;;;;;5.47;3.63;;;;;;;;;;5114065;28;20051;-68
2023/01/06 04:41:54;;;;;;;5.50;3.22;;;;;;;;;;5095885;28;20042;-68
2023/01/06 04:44:21;;;;;;;4.15;3.17;;;;;;;;;;5114109;28;20031;-68
2023/01/06 04:46:47;;;;;;;3.17;2.72;;;;;;;;;;5114573;28;20026;-68
2023/01/06 04:49:13;;;;;;;2.85;2.20;;;;;;;;;;5114631;28;20034;-67
2023/01/06 04:51:39;;;;;;;4.45;2.70;;;;;;;;;;5113893;28;20022;-67
2023/01/06 04:54:06;;;;;;;4.18;2.80;;;;;;;;;;5113744;28;20383;-68
2023/01/06 04:56:32;;;;;;;5.70;2.67;;;;;;;;;;5113827;28;20020;-68
2023/01/06 04:58:58;;;;;;;3.90;2.55;;;;;;;;;;5113885;28;20564;-68
2023/01/06 05:01:26;;;;;;;2.72;2.35;;;;;;;;;;5113992;28;20022;-68
2023/01/06 05:03:52;;;;;;;3.00;2.28;;;;;;;;;;5113859;28;20099;-67
2023/01/06 05:06:19;;;;;;;3.30;2.42;;;;;;;;;;5113886;28;20023;-68
2023/01/06 05:08:45;;;;;;;3.33;2.40;;;;;;;;;;5113842;28;20027;-67
2023/01/06 05:11:17;;;;;;;2.42;1.70;;;;;;;;;;5095342;28;20016;-68
2023/01/06 05:13:43;;;;;;;2.80;1.92;;;;;;;;;;5113352;28;20035;-68
2023/01/06 05:16:11;;;;;;;3.60;2.20;;;;;;;;;;5113853;28;20031;-67
2023/01/06 05:18:38;;;;;;;2.40;2.20;;;;;;;;;;5095537;28;20019;-68
2023/01/06 05:21:04;;;;;;;2.55;2.13;;;;;;;;;;5113242;28;20487;-68
2023/01/06 05:23:30;;;;;;;2.72;2.13;;;;;;;;;;5113407;28;20038;-68
2023/01/06 05:25:57;;;;;;;2.65;2.08;;;;;;;;;;5112913;28;20373;-68
2023/01/06 05:28:23;;;;;;;3.05;2.10;;;;;;;;;;5113522;28;20024;-68
2023/01/06 05:30:49;;;;;;;2.60;2.10;;;;;;;;;;5113631;28;20012;-68
2023/01/06 05:33:16;;;;;;;2.53;2.25;;;;;;;;;;5113472;28;20476;-68
2023/01/06 05:35:42;;;;;;;3.00;2.65;;;;;;;;;;5113442;28;20026;-68
2023/01/06 05:38:08;;;;;;;4.72;2.60;;;;;;;;;;5113371;28;20028;-68
2023/01/06 05:40:35;;;;;;;3.50;2.60;;;;;;;;;;5112322;28;20175;-70
2023/01/06 05:43:01;;;;;;;3.20;2.63;;;;;;;;;;5113012;28;20039;-68
2023/01/06 05:45:27;;;;;;;3.50;2.22;;;;;;;;;;5112774;28;20488;-68
2023/01/06 05:47:54;;;;;;;4.05;2.30;;;;;;;;;;5113494;28;20030;-68
2023/01/06 05:50:20;;;;;;;3.83;2.72;;;;;;;;;;5113435;28;20031;-68
2023/01/06 05:52:46;;;;;;;4.15;2.50;;;;;;;;;;5113046;28;20080;-68
2023/01/06 05:55:12;;;;;;;11.57;2.60;;;;;;;;;;5112898;28;20026;-68
2023/01/06 05:57:39;;;;;;;4.07;2.80;;;;;;;;;;5113309;28;20034;-68
2023/01/06 06:00:06;;;;;;;4.53;2.97;;;;;;;;;;5113012;28;20049;-68
2023/01/06 06:02:32;;;;;;;4.10;2.88;;;;;;;;;;5112866;28;20381;-67
2023/01/06 06:04:58;;;;;;;2.55;2.17;;;;;;;;;;5112621;28;20083;-68
2023/01/06 06:07:24;;;;;;;4.05;2.70;;;;;;;;;;5112777;28;20027;-68
2023/01/06 06:09:51;;;;;;;7.53;3.53;;;;;;;;;;5112217;28;20494;-68
2023/01/06 06:12:17;;;;;;;5.82;3.50;;;;;;;;;;5113054;28;20038;-68
2023/01/06 06:14:43;;;;;;;4.75;3.40;;;;;;;;;;5112829;28;20019;-70
2023/01/06 06:17:10;;;;;;;3.78;2.53;;;;;;;;;;5112840;28;20028;-71
2023/01/06 06:19:36;;;;;;;3.40;2.40;;;;;;;;;;5113159;28;20032;-71
2023/01/06 06:22:03;;;;;;;4.13;2.33;;;;;;;;;;5112550;28;20046;-70
2023/01/06 06:24:29;;;;;;;2.92;2.47;;;;;;;;;;5111899;28;20050;-70
2023/01/06 06:26:55;;;;;;;3.65;2.60;;;;;;;;;;5112619;28;20024;-68
2023/01/06 06:29:21;;;;;;;3.03;2.20;;;;;;;;;;5112462;28;20024;-68
2023/01/06 06:31:48;;;;;;;3.83;2.65;;;;;;;;;;5112715;28;20007;-68
2023/01/06 06:34:14;;;;;;;3.35;2.70;;;;;;;;;;5112686;28;20023;-70
2023/01/06 06:36:40;;;;;;;4.13;2.45;;;;;;;;;;5112616;28;20012;-69
2023/01/06 06:39:07;;;;;;;2.53;2.10;;;;;;;;;;5112136;28;20046;-68
2023/01/06 06:41:33;;;;;;;3.13;2.42;;;;;;;;;;5112115;28;20353;-68
2023/01/06 06:43:59;;;;;;;6.25;3.13;;;;;;;;;;5112157;28;20050;-69
2023/01/06 06:46:26;;;;;;;5.53;3.83;;;;;;;;;;5112650;28;20024;-68
2023/01/06 06:48:52;;;;;;;4.90;3.30;;;;;;;;;;5113206;28;20028;-69
2023/01/06 06:51:19;;;;;;;4.18;2.85;;;;;;;;;;5115538;28;20015;-68
2023/01/06 06:53:46;;;;;;;4.72;2.90;;;;;;;;;;5115765;28;20020;-68
2023/01/06 06:56:13;;;;;;;21.10;11.70;;;;;;;;;;5116442;28;20030;-68
2023/01/06 06:58:40;;;;;;;4.93;3.80;;;;;;;;;;5117117;28;20024;-69
2023/01/06 07:01:07;;;;;;;16.70;9.57;;;;;;;;;;5116714;28;20072;-69
2023/01/06 07:03:33;;;;;;;8.25;4.40;;;;;;;;;;5116010;28;20031;-69
2023/01/06 07:06:00;;;;;;;6.78;3.60;;;;;;;;;;5116562;28;20024;-69
2023/01/06 07:08:26;;;;;;;24.25;9.80;;;;;;;;;;5116029;28;20088;-68
2023/01/06 07:10:53;;;;;;;29.42;13.25;;;;;;;;;;5116136;28;20015;-69
2023/01/06 07:13:19;;;;;;;9.32;3.65;;;;;;;;;;5112527;27;20028;-70
2023/01/06 07:15:45;;;;;;;6.97;3.00;;;;;;;;;;5111169;28;20035;-71
2023/01/06 07:18:12;;;;;;;3.70;2.75;;;;;;;;;;5115907;28;20049;-71
2023/01/06 07:20:38;;;;;;;5.85;3.55;;;;;;;;;;5105854;28;20032;-70
2023/01/06 07:23:06;;;;;;;17.38;7.18;;;;;;;;;;5113821;28;20038;-71
2023/01/06 07:25:32;;;;;;;6.07;3.97;;;;;;;;;;5113970;28;20032;-70
2023/01/06 07:28:04;;;;;;;10.15;4.00;;;;;;;;;;5105921;27;20038;-71
2023/01/06 07:30:30;;;;;;;4.82;3.13;;;;;;;;;;5108394;28;20034;-71
2023/01/06 07:32:56;;;;;;;6.28;2.88;;;;;;;;;;5113368;28;20020;-71
2023/01/06 07:35:23;;;;;;;6.25;3.38;;;;;;;;;;5109837;28;20024;-71
2023/01/06 07:37:49;;;;;;;9.77;5.95;;;;;;;;;;5101840;28;20031;-72
2023/01/06 07:40:17;;;;;;;13.05;7.18;;;;;;;;;;5113738;28;20047;-70
2023/01/06 07:42:43;;;;;;;9.52;5.07;;;;;;;;;;5113992;28;20476;-71
2023/01/06 07:45:10;;;;;;;12.32;3.55;;;;;;;;;;5114253;28;20039;-70
2023/01/06 07:47:36;;;;;;;6.85;3.60;;;;;;;;;;5114002;28;20027;-71
2023/01/06 07:50:03;;;;;;;6.07;3.47;;;;;;;;;;5114483;28;20024;-71
2023/01/06 07:52:30;;;;;;;7.30;3.00;;;;;;;;;;5115148;28;20024;-71
2023/01/06 07:54:58;;;;;;;6.68;2.92;;;;;;;;;;5114643;28;20031;-70
2023/01/06 07:57:27;;;;;;;4.57;3.10;;;;;;;;;;5114362;28;20012;-70
2023/01/06 07:59:54;;;;;;;24.75;13.10;;;;;;;;;;5113346;28;20035;-70
2023/01/06 08:02:21;;;;;;;9.20;4.60;;;;;;;;;;5112935;28;20049;-70
2023/01/06 08:04:47;;;;;;;14.65;8.82;;;;;;;;;;5104241;27;20035;-71
2023/01/06 08:07:14;;;;;;;9.20;6.22;;;;;;;;;;5114149;28;20036;-70
2023/01/06 08:09:40;;;;;;;5.93;3.80;;;;;;;;;;5114429;28;20024;-70
2023/01/06 08:12:06;;;;;;;5.32;3.60;;;;;;;;;;5114544;28;20464;-70
2023/01/06 08:14:33;;;;;;;6.43;3.88;;;;;;;;;;5113630;28;20011;-70
2023/01/06 08:16:59;;;;;;;4.93;3.60;;;;;;;;;;5113268;28;20019;-71
2023/01/06 08:19:26;;;;;;;4.22;2.70;;;;;;;;;;5113555;28;20032;-73
2023/01/06 08:21:52;;;;;;;4.82;3.83;;;;;;;;;;5113244;28;20032;-72
2023/01/06 08:24:18;;;;;;;4.70;3.35;;;;;;;;;;5113046;28;20050;-71
2023/01/06 08:26:44;;;;;;;11.57;8.15;;;;;;;;;;5113176;28;20016;-70
2023/01/06 08:29:11;;;;;;;7.15;4.40;;;;;;;;;;5109812;28;20034;-69
2023/01/06 08:31:37;;;;;;;3.70;2.92;;;;;;;;;;5110321;28;20024;-67
2023/01/06 08:34:04;;;;;;;4.78;3.22;;;;;;;;;;5097938;28;20032;-70
2023/01/06 08:36:31;;;;;;;5.97;3.30;;;;;;;;;;5102423;28;20030;-70
2023/01/06 08:38:57;;;;;;;12.52;4.20;;;;;;;;;;5113462;28;20054;-70
2023/01/06 08:41:23;;;;;;;7.68;5.32;;;;;;;;;;5101791;28;20030;-70
2023/01/06 08:43:50;;;;;;;4.35;3.30;;;;;;;;;;5111252;28;20041;-70
2023/01/06 08:46:18;;;;;;;7.28;4.03;;;;;;;;;;5104476;28;20103;-70
2023/01/06 08:48:44;;;;;;;6.07;3.92;;;;;;;;;;5112139;28;20034;-70
2023/01/06 08:51:13;;;;;;;6.20;4.00;;;;;;;;;;5112586;28;20020;-70
2023/01/06 08:53:39;;;;;;;7.00;4.13;;;;;;;;;;5112983;28;20504;-70
2023/01/06 08:56:11;;;;;;;7.38;4.25;;;;;;;;;;5111885;28;20028;-71
2023/01/06 08:58:37;;;;;;;6.32;3.92;;;;;;;;;;5111846;28;20066;-70
2023/01/06 09:01:04;;;;;;;9.68;5.50;;;;;;;;;;5112608;28;20019;-70
2023/01/06 09:03:30;;;;;;;7.88;5.82;;;;;;;;;;5112118;28;20031;-70
2023/01/06 09:05:57;;;;;;;11.20;5.68;;;;;;;;;;5112634;28;20511;-70
2023/01/06 09:08:24;;;;;;;5.15;3.08;;;;;;;;;;5112783;27;20364;-70
2023/01/06 09:10:50;;;;;;;5.20;3.53;;;;;;;;;;5111988;28;20033;-73
2023/01/06 09:13:17;;;;;;;4.63;2.58;;;;;;;;;;5104145;28;20031;-70
2023/01/06 09:15:44;;;;;;;4.68;2.58;;;;;;;;;;5110011;28;20031;-70
2023/01/06 09:18:10;;;;;;;10.13;4.00;;;;;;;;;;5111062;28;20012;-70
2023/01/06 09:20:37;;;;;;;3.97;3.08;;;;;;;;;;5113782;27;20445;-70
2023/01/06 09:23:03;;;;;;;3.72;2.08;;;;;;;;;;5110804;28;20372;-70
2023/01/06 09:25:30;;;;;;;6.43;2.90;;;;;;;;;;5119328;27;20023;-69
2023/01/06 09:27:58;;;;;;;12.88;7.65;;;;;;;;;;5097055;28;20472;-69
2023/01/06 09:30:24;;;;;;;6.93;2.90;;;;;;;;;;5111818;28;20023;-70
2023/01/06 09:32:51;;;;;;;12.63;6.15;;;;;;;;;;5110554;28;20096;-70
2023/01/06 09:35:17;;;;;;;11.60;4.35;;;;;;;;;;5111163;28;20036;-70
2023/01/06 09:37:43;;;;;;;10.07;4.70;;;;;;;;;;5101434;27;20075;-69
2023/01/06 09:40:15;;;;;;;4.53;3.25;;;;;;;;;;5101733;28;20051;-70
2023/01/06 09:42:53;;;;;;;4.10;2.85;;;;;;;;;;5111036;28;20038;-70
2023/01/06 09:45:31;;;;;;;6.13;2.78;;;;;;;;;;5110860;28;20054;-70
2023/01/06 09:47:59;;;;;;;8.40;3.25;;;;;;;;;;5111125;28;20430;-70
2023/01/06 09:50:29;;;;;;;5.90;3.50;;;;;;;;;;5111330;28;20039;-70
2023/01/06 09:52:56;;;;;;;;;;;;;;;;;;5090167;28;20761;-68
2023/01/06 09:55:30;;;;;;;9.23;3.72;;;;;;;;;;5101909;28;19914;-69
2023/01/06 09:57:59;;;;;;;4.18;2.60;;;;;;;;;;5072836;28;20043;-70
2023/01/06 10:00:32;;;;;;;7.18;2.67;;;;;;;;;;5092101;28;20011;-70
2023/01/06 10:02:58;;;;;;;3.63;2.38;;;;;;;;;;5099593;28;20054;-70
2023/01/06 10:05:35;;;;;;;4.05;1.70;;;;;;;;;;5092386;28;20100;-70
2023/01/06 10:08:08;;;;;;;3.92;2.13;;;;;;;;;;5095584;28;20020;-69
2023/01/06 10:10:52;;;;;;;14.93;7.40;;;;;;;;;;5097262;28;20024;-70
2023/01/06 10:13:33;;;;;;;1.73;1.63;;;;;;;;;;5091981;28;20041;-70
2023/01/06 10:16:08;;;;;;;5.80;2.95;;;;;;;;;;5128976;28;20037;-70
2023/01/06 10:18:35;;;;;;;5.03;2.15;;;;;;;;;;5109282;28;20027;-70
2023/01/06 10:21:14;;;;;;;7.50;3.83;;;;;;;;;;5110956;28;20068;-70
2023/01/06 10:23:56;;;;;;;6.72;3.53;;;;;;;;;;5110414;28;20035;-70
2023/01/06 10:26:27;;;;;;;10.77;4.20;;;;;;;;;;5095304;28;20028;-70
2023/01/06 10:28:56;;;;;;;8.82;3.72;;;;;;;;;;5104467;28;20028;-69
2023/01/06 10:31:28;;;;;;;6.45;2.97;;;;;;;;;;5109094;28;20395;-70
2023/01/06 10:33:56;;;;;;;24.70;11.75;;;;;;;;;;5112179;28;20039;-70
2023/01/06 10:36:29;;;;;;;29.30;14.25;;;;;;;;;;5113223;28;20034;-70
2023/01/06 10:38:56;;;;;;;9.10;4.80;;;;;;;;;;5114603;28;20044;-70
2023/01/06 10:41:22;;;;;;;5.45;3.53;;;;;;;;;;5114115;28;20020;-72
2023/01/06 10:43:49;;;;;;;3.05;2.30;;;;;;;;;;5103623;28;20032;-70
2023/01/06 10:46:15;;;;;;;4.75;2.60;;;;;;;;;;5104243;28;20032;-70
2023/01/06 10:48:42;;;;;;;113.00;41.13;;;;;;;;;;5090099;28;20022;-70
2023/01/06 10:51:38;;;;;;;17.70;7.10;;;;;;;;;;5107483;28;20027;-71
2023/01/06 10:54:14;;;;;;;5.97;2.78;;;;;;;;;;5081816;28;20058;-70
2023/01/06 10:56:43;;;;;;;19.10;8.50;;;;;;;;;;5088424;28;20026;-70
2023/01/06 10:59:10;;;;;;;5.35;3.20;;;;;;;;;;5100129;28;20034;-70
2023/01/06 11:01:48;;;;;;;2.78;2.17;;;;;;;;;;5112863;28;20043;-70
2023/01/06 11:04:16;;;;;;;4.32;2.85;;;;;;;;;;5077646;28;20038;-70
2023/01/06 11:06:48;;;;;;;6.22;4.03;;;;;;;;;;5113322;28;20076;-70
2023/01/06 11:09:40;;;;;;;6.75;4.88;;;;;;;;;;5113756;28;20028;-70
2023/01/06 11:12:11;;;;;;;6.50;3.92;;;;;;;;;;5114286;28;20031;-70
2023/01/06 11:14:37;;;;;;;;;;;;;;;;;;5125623;27;20038;-70
2023/01/06 11:17:06;;;;;;;6.30;3.30;;;;;;;;;;5150541;27;19911;-70
2023/01/06 11:19:32;;;;;;;10.85;7.88;;;;;;;;;;5134730;27;20023;-70
2023/01/06 11:21:58;;;;;;;10.65;5.53;;;;;;;;;;5134502;27;20801;-70
2023/01/06 11:24:25;;;;;;;7.22;4.88;;;;;;;;;;5131877;27;20140;-70
2023/01/06 11:26:52;;;;;;;6.10;3.50;;;;;;;;;;5113965;28;20022;-69
2023/01/06 11:29:24;;;;;;;8.25;3.85;;;;;;;;;;5113565;28;20498;-70
2023/01/06 11:31:50;;;;;;;4.50;2.72;;;;;;;;;;5114197;28;20068;-71
2023/01/06 11:34:22;;;;;;;3.55;2.40;;;;;;;;;;5113819;28;20027;-70
2023/01/06 11:36:49;;;;;;;4.65;2.65;;;;;;;;;;5112449;28;20016;-70
2023/01/06 11:39:21;;;;;;;3.58;2.10;;;;;;;;;;5113531;28;20039;-70
2023/01/06 11:41:51;;;;;;;3.35;2.15;;;;;;;;;;5113301;28;20035;-70
2023/01/06 11:44:21;;;;;;;3.05;2.33;;;;;;;;;;5095314;28;20038;-70
2023/01/06 11:46:56;;;;;;;3.60;2.25;;;;;;;;;;5113757;28;20023;-68
2023/01/06 11:49:37;;;;;;;4.30;2.97;;;;;;;;;;5112384;28;20032;-70
2023/01/06 11:52:06;;;;;;;4.90;2.20;;;;;;;;;;5112837;28;20593;-70
2023/01/06 11:54:35;;;;;;;3.67;2.00;;;;;;;;;;5095176;28;20496;-70
2023/01/06 11:57:37;;;;;;;6.40;2.00;;;;;;;;;;5113114;28;20026;-70
2023/01/06 12:00:12;;;;;;;2.90;2.10;;;;;;;;;;5050306;28;20031;-72
2023/01/06 12:02:50;;;;;;;3.50;2.10;;;;;;;;;;5050279;28;20047;-72
2023/01/06 12:05:40;;;;;;;3.20;2.17;;;;;;;;;;5050243;28;20045;-70
2023/01/06 12:08:14;;;;;;;4.72;2.55;;;;;;;;;;5010279;28;20026;-70
2023/01/06 12:10:43;;;;;;;4.82;3.03;;;;;;;;;;5010405;28;20075;-70
2023/01/06 12:13:12;;;;;;;4.05;3.00;;;;;;;;;;5010672;28;20083;-73
2023/01/06 12:15:40;;;;;;;4.85;2.97;;;;;;;;;;4993958;28;20470;-69
2023/01/06 12:18:12;;;;;;;3.85;2.30;;;;;;;;;;5010224;28;20030;-70
2023/01/06 12:20:42;;;;;;;4.28;2.47;;;;;;;;;;5011231;28;20044;-72
2023/01/06 12:23:29;;;;;;;6.10;3.78;;;;;;;;;;5011929;28;20034;-70
2023/01/06 12:25:59;;;;;;;5.18;3.40;;;;;;;;;;5006789;28;20049;-69
2023/01/06 12:28:30;;;;;;;4.80;3.05;;;;;;;;;;5029522;28;20045;-68
2023/01/06 12:30:57;;;;;;;;;;;;;;;;;;5020973;28;20038;-70
2023/01/06 12:33:31;;;;;;;4.80;3.28;;;;;;;;;;5019384;28;20467;-69
2023/01/06 12:36:00;;;;;;;7.32;3.63;;;;;;;;;;5049767;28;20033;-69
2023/01/06 12:38:49;;;;;;;6.53;3.13;;;;;;;;;;5047566;28;20043;-72
2023/01/06 12:41:31;;;;;;;11.80;3.38;;;;;;;;;;5049468;28;20467;-72
2023/01/06 12:44:00;;;;;;;5.95;3.63;;;;;;;;;;5055528;28;20546;-69
2023/01/06 12:46:30;;;;;;;5.90;3.38;;;;;;;;;;5103270;28;20032;-70
2023/01/06 12:48:59;;;;;;;3.73;2.90;;;;;;;;;;5109355;28;20028;-69
2023/01/06 12:51:30;;;;;;;5.05;2.80;;;;;;;;;;5111442;28;20039;-69
2023/01/06 12:53:59;;;;;;;4.40;2.85;;;;;;;;;;5111386;28;20053;-69
2023/01/06 12:56:31;;;;;;;6.63;3.10;;;;;;;;;;5111530;28;20043;-68
2023/01/06 12:59:24;;;;;;;4.45;2.75;;;;;;;;;;5112348;28;20023;-69
2023/01/06 13:01:54;;;;;;;6.70;3.25;;;;;;;;;;5049102;28;20033;-69
2023/01/06 13:04:35;;;;;;;8.07;5.03;;;;;;;;;;5029118;28;20037;-69
2023/01/06 13:07:10;;;;;;;11.27;6.60;;;;;;;;;;5048722;28;20033;-70
2023/01/06 13:09:44;;;;;;;9.02;4.38;;;;;;;;;;5048805;28;20033;-69
2023/01/06 13:12:29;;;;;;;7.05;5.30;;;;;;;;;;5044728;28;20040;-69
2023/01/06 13:14:55;;;;;;;8.40;5.35;;;;;;;;;;5048629;28;20021;-69
2023/01/06 13:17:40;;;;;;;13.45;6.00;;;;;;;;;;5046914;28;20029;-67
2023/01/06 13:20:12;;;;;;;31.85;17.52;;;;;;;;;;5061220;28;20049;-70
2023/01/06 13:22:46;;;;;;;212.30;108.85;;;;;;;;;;5036163;28;20171;-70
2023/01/06 13:25:31;;;;;;;30.77;17.60;;;;;;;;;;5041563;28;20041;-70
2023/01/06 13:28:05;;;;;;;13.38;7.45;;;;;;;;;;5028600;28;20416;-70
2023/01/06 13:30:37;;;;;;;6.95;4.72;;;;;;;;;;5041766;28;20025;-70
2023/01/06 13:33:03;;;;;;;6.68;4.10;;;;;;;;;;5047254;28;20415;-70
2023/01/06 13:35:39;;;;;;;53.65;29.02;;;;;;;;;;5046608;28;20039;-70
2023/01/06 13:38:12;;;;;;;26.83;16.70;;;;;;;;;;5063562;28;20053;-70
2023/01/06 13:40:40;;;;;;;28.52;17.42;;;;;;;;;;5108105;28;20057;-70
2023/01/06 13:43:07;;;;;;;12.60;6.82;;;;;;;;;;5109451;28;20027;-69
2023/01/06 13:45:35;;;;;;;11.45;6.80;;;;;;;;;;5109921;28;20035;-70
2023/01/06 13:48:07;;;;;;;7.20;4.88;;;;;;;;;;5106628;28;20019;-70
2023/01/06 13:50:37;;;;;;;6.35;4.07;;;;;;;;;;5109293;28;20031;-70
2023/01/06 13:53:04;;;;;;;9.18;5.40;;;;;;;;;;5108908;28;20027;-70
2023/01/06 13:55:35;;;;;;;8.35;5.22;;;;;;;;;;5107154;28;20012;-69
2023/01/06 13:58:20;;;;;;;13.93;7.00;;;;;;;;;;5110001;28;20026;-70
2023/01/06 14:01:04;;;;;;;7.57;5.15;;;;;;;;;;5109568;27;20026;-70
2023/01/06 14:03:30;;;;;;;7.25;5.05;;;;;;;;;;5109622;28;20483;-70
2023/01/06 14:05:57;;;;;;;9.20;5.40;;;;;;;;;;5109390;28;20483;-70
2023/01/06 14:08:26;;;;;;;11.63;6.30;;;;;;;;;;5107786;28;20019;-70
2023/01/06 14:10:57;;;;;;;11.07;7.38;;;;;;;;;;5109446;28;20178;-69
2023/01/06 14:13:23;;;;;;;8.70;6.03;;;;;;;;;;5111394;28;20034;-70
2023/01/06 14:15:54;;;;;;;10.43;6.38;;;;;;;;;;5106984;28;20533;-72
2023/01/06 14:18:32;;;;;;;9.18;6.13;;;;;;;;;;5106655;28;20016;-73
2023/01/06 14:21:00;;;;;;;9.07;5.97;;;;;;;;;;5108396;28;20039;-70
2023/01/06 14:23:26;;;;;;;11.15;6.60;;;;;;;;;;5110713;28;20421;-70
2023/01/06 14:25:54;;;;;;;8.60;6.50;;;;;;;;;;5124749;28;20035;-70
2023/01/06 14:28:21;;;;;;;30.73;14.40;;;;;;;;;;5112425;28;20050;-70
2023/01/06 14:30:48;;;;;;;33.97;16.13;;;;;;;;;;5116165;28;20024;-70
2023/01/06 14:33:38;;;;;;;11.75;8.13;;;;;;;;;;5110756;28;20016;-70
2023/01/06 14:36:14;;;;;;;13.00;7.80;;;;;;;;;;5097194;28;20050;-70
2023/01/06 14:38:51;;;;;;;16.65;9.90;;;;;;;;;;5110190;28;20100;-70
2023/01/06 14:41:21;;;;;;;41.47;18.38;;;;;;;;;;5110335;28;20036;-70
2023/01/06 14:43:53;;;;;;;17.15;9.85;;;;;;;;;;5110471;28;20040;-70
2023/01/06 14:46:22;;;;;;;18.75;9.93;;;;;;;;;;5110554;28;20016;-70
2023/01/06 14:48:51;;;;;;;14.10;9.18;;;;;;;;;;5110480;28;20027;-70
2023/01/06 14:51:19;;;;;;;18.35;9.75;;;;;;;;;;5110405;28;20020;-70
2023/01/06 14:53:50;;;;;;;16.83;9.93;;;;;;;;;;5110602;28;20596;-70
2023/01/06 14:56:21;;;;;;;12.98;9.45;;;;;;;;;;5110043;28;20034;-70
2023/01/06 14:58:48;;;;;;;17.10;9.63;;;;;;;;;;5110082;28;20028;-70